sensor_id;sensor_type;location;lat;lon;timestamp;P1;durP1;ratioP1;P2;durP2;ratioP2
47161;SDS011;32921;53.256;8.198;2022-12-18T00:00:59;144.65;;;41.10;;
47161;SDS011;32921;53.256;8.198;2022-12-18T00:03:30;158.30;;;48.75;;
47161;SDS011;32921;53.256;8.198;2022-12-18T00:06:00;175.13;;;48.72;;
47161;SDS011;32921;53.256;8.198;2022-12-18T00:08:26;146.68;;;36.38;;
47161;SDS011;32921;53.256;8.198;2022-12-18T00:10:52;175.13;;;47.63;;
47161;SDS011;32921;53.256;8.198;2022-12-18T00:13:18;282.45;;;126.40;;
47161;SDS011;32921;53.256;8.198;2022-12-18T00:15:44;174.40;;;52.30;;
47161;SDS011;32921;53.256;8.198;2022-12-18T00:18:09;186.15;;;53.78;;
47161;SDS011;32921;53.256;8.198;2022-12-18T00:20:35;163.88;;;46.90;;
47161;SDS011;32921;53.256;8.198;2022-12-18T00:23:02;167.18;;;44.03;;
47161;SDS011;32921;53.256;8.198;2022-12-18T00:25:27;185.02;;;57.53;;
47161;SDS011;32921;53.256;8.198;2022-12-18T00:27:53;165.77;;;46.67;;
47161;SDS011;32921;53.256;8.198;2022-12-18T00:30:18;158.38;;;45.25;;
47161;SDS011;32921;53.256;8.198;2022-12-18T00:32:44;187.88;;;54.35;;
47161;SDS011;32921;53.256;8.198;2022-12-18T00:35:10;141.93;;;38.38;;
47161;SDS011;32921;53.256;8.198;2022-12-18T00:37:35;174.45;;;50.00;;
47161;SDS011;32921;53.256;8.198;2022-12-18T00:40:01;177.52;;;47.50;;
47161;SDS011;32921;53.256;8.198;2022-12-18T00:42:27;188.80;;;46.88;;
47161;SDS011;32921;53.256;8.198;2022-12-18T00:45:12;174.45;;;49.10;;
47161;SDS011;32921;53.256;8.198;2022-12-18T00:47:38;191.75;;;52.03;;
47161;SDS011;32921;53.256;8.198;2022-12-18T00:50:04;189.32;;;51.63;;
47161;SDS011;32921;53.256;8.198;2022-12-18T00:52:29;184.75;;;49.85;;
47161;SDS011;32921;53.256;8.198;2022-12-18T00:54:55;250.15;;;87.57;;
47161;SDS011;32921;53.256;8.198;2022-12-18T00:57:20;205.55;;;61.33;;
47161;SDS011;32921;53.256;8.198;2022-12-18T00:59:46;184.10;;;49.78;;
47161;SDS011;32921;53.256;8.198;2022-12-18T01:02:12;209.98;;;52.55;;
47161;SDS011;32921;53.256;8.198;2022-12-18T01:04:37;194.77;;;51.85;;
47161;SDS011;32921;53.256;8.198;2022-12-18T01:07:03;202.15;;;51.60;;
47161;SDS011;32921;53.256;8.198;2022-12-18T01:09:28;177.55;;;45.22;;
47161;SDS011;32921;53.256;8.198;2022-12-18T01:11:54;196.38;;;51.33;;
47161;SDS011;32921;53.256;8.198;2022-12-18T01:14:19;187.38;;;46.83;;
47161;SDS011;32921;53.256;8.198;2022-12-18T01:16:45;216.02;;;54.35;;
47161;SDS011;32921;53.256;8.198;2022-12-18T01:19:10;217.57;;;51.05;;
47161;SDS011;32921;53.256;8.198;2022-12-18T01:21:36;218.93;;;53.28;;
47161;SDS011;32921;53.256;8.198;2022-12-18T01:24:02;204.68;;;51.53;;
47161;SDS011;32921;53.256;8.198;2022-12-18T01:26:28;211.60;;;56.65;;
47161;SDS011;32921;53.256;8.198;2022-12-18T01:28:55;213.02;;;53.30;;
47161;SDS011;32921;53.256;8.198;2022-12-18T01:31:25;232.30;;;51.85;;
47161;SDS011;32921;53.256;8.198;2022-12-18T01:33:52;241.43;;;58.20;;
47161;SDS011;32921;53.256;8.198;2022-12-18T01:36:20;251.35;;;63.50;;
47161;SDS011;32921;53.256;8.198;2022-12-18T01:38:47;250.55;;;64.35;;
47161;SDS011;32921;53.256;8.198;2022-12-18T01:41:14;255.60;;;62.95;;
47161;SDS011;32921;53.256;8.198;2022-12-18T01:43:43;259.00;;;63.28;;
47161;SDS011;32921;53.256;8.198;2022-12-18T01:46:20;212.10;;;54.63;;
47161;SDS011;32921;53.256;8.198;2022-12-18T01:48:48;214.23;;;55.40;;
47161;SDS011;32921;53.256;8.198;2022-12-18T01:51:17;197.18;;;54.05;;
47161;SDS011;32921;53.256;8.198;2022-12-18T01:53:43;199.45;;;51.28;;
47161;SDS011;32921;53.256;8.198;2022-12-18T01:56:12;179.45;;;51.38;;
47161;SDS011;32921;53.256;8.198;2022-12-18T01:58:41;193.93;;;54.90;;
47161;SDS011;32921;53.256;8.198;2022-12-18T02:01:21;216.45;;;69.25;;
47161;SDS011;32921;53.256;8.198;2022-12-18T02:03:48;270.52;;;85.68;;
47161;SDS011;32921;53.256;8.198;2022-12-18T02:09:27;304.83;;;104.05;;
47161;SDS011;32921;53.256;8.198;2022-12-18T02:12:05;278.13;;;92.28;;
47161;SDS011;32921;53.256;8.198;2022-12-18T02:14:41;255.25;;;88.78;;
47161;SDS011;32921;53.256;8.198;2022-12-18T02:17:18;220.85;;;79.55;;
47161;SDS011;32921;53.256;8.198;2022-12-18T02:28:23;179.63;;;62.43;;
47161;SDS011;32921;53.256;8.198;2022-12-18T02:30:53;183.60;;;62.27;;
47161;SDS011;32921;53.256;8.198;2022-12-18T02:33:21;170.68;;;64.50;;
47161;SDS011;32921;53.256;8.198;2022-12-18T02:35:48;167.27;;;62.30;;
47161;SDS011;32921;53.256;8.198;2022-12-18T02:38:16;166.18;;;60.17;;
47161;SDS011;32921;53.256;8.198;2022-12-18T02:40:42;155.05;;;55.70;;
47161;SDS011;32921;53.256;8.198;2022-12-18T02:43:10;139.93;;;49.28;;
47161;SDS011;32921;53.256;8.198;2022-12-18T02:45:56;154.70;;;52.97;;
47161;SDS011;32921;53.256;8.198;2022-12-18T02:48:24;141.87;;;51.03;;
47161;SDS011;32921;53.256;8.198;2022-12-18T02:51:08;154.52;;;55.25;;
47161;SDS011;32921;53.256;8.198;2022-12-18T02:53:51;144.05;;;53.85;;
47161;SDS011;32921;53.256;8.198;2022-12-18T02:56:26;139.00;;;53.40;;
47161;SDS011;32921;53.256;8.198;2022-12-18T02:59:04;142.50;;;51.07;;
47161;SDS011;32921;53.256;8.198;2022-12-18T03:01:43;122.13;;;47.50;;
47161;SDS011;32921;53.256;8.198;2022-12-18T03:06:54;119.53;;;41.47;;
47161;SDS011;32921;53.256;8.198;2022-12-18T03:09:31;113.57;;;40.00;;
47161;SDS011;32921;53.256;8.198;2022-12-18T03:12:02;122.33;;;42.00;;
47161;SDS011;32921;53.256;8.198;2022-12-18T03:14:50;110.80;;;40.35;;
47161;SDS011;32921;53.256;8.198;2022-12-18T03:17:30;108.47;;;40.30;;
47161;SDS011;32921;53.256;8.198;2022-12-18T03:19:58;98.53;;;37.50;;
47161;SDS011;32921;53.256;8.198;2022-12-18T03:22:32;103.37;;;38.07;;
47161;SDS011;32921;53.256;8.198;2022-12-18T03:25:00;96.37;;;37.07;;
47161;SDS011;32921;53.256;8.198;2022-12-18T03:27:29;94.53;;;36.50;;
47161;SDS011;32921;53.256;8.198;2022-12-18T03:30:04;98.80;;;35.17;;
47161;SDS011;32921;53.256;8.198;2022-12-18T03:32:35;87.32;;;33.17;;
47161;SDS011;32921;53.256;8.198;2022-12-18T03:35:05;99.75;;;34.67;;
47161;SDS011;32921;53.256;8.198;2022-12-18T03:37:33;95.97;;;34.58;;
47161;SDS011;32921;53.256;8.198;2022-12-18T03:39:59;92.38;;;33.63;;
47161;SDS011;32921;53.256;8.198;2022-12-18T03:42:28;89.28;;;32.55;;
47161;SDS011;32921;53.256;8.198;2022-12-18T03:50:18;88.90;;;31.07;;
47161;SDS011;32921;53.256;8.198;2022-12-18T03:53:14;86.93;;;31.83;;
47161;SDS011;32921;53.256;8.198;2022-12-18T03:55:54;82.10;;;30.90;;
47161;SDS011;32921;53.256;8.198;2022-12-18T03:58:23;81.57;;;31.03;;
47161;SDS011;32921;53.256;8.198;2022-12-18T04:00:50;79.63;;;30.57;;
47161;SDS011;32921;53.256;8.198;2022-12-18T04:03:18;77.50;;;28.83;;
47161;SDS011;32921;53.256;8.198;2022-12-18T04:05:44;72.33;;;26.77;;
47161;SDS011;32921;53.256;8.198;2022-12-18T04:08:12;78.27;;;29.43;;
47161;SDS011;32921;53.256;8.198;2022-12-18T04:10:38;77.95;;;29.63;;
47161;SDS011;32921;53.256;8.198;2022-12-18T04:13:04;71.70;;;28.17;;
47161;SDS011;32921;53.256;8.198;2022-12-18T04:15:31;75.97;;;29.50;;
47161;SDS011;32921;53.256;8.198;2022-12-18T04:17:59;74.60;;;30.23;;
47161;SDS011;32921;53.256;8.198;2022-12-18T04:20:24;71.47;;;28.60;;
47161;SDS011;32921;53.256;8.198;2022-12-18T04:22:50;74.32;;;29.00;;
47161;SDS011;32921;53.256;8.198;2022-12-18T04:25:15;77.75;;;28.98;;
47161;SDS011;32921;53.256;8.198;2022-12-18T04:27:41;65.25;;;26.55;;
47161;SDS011;32921;53.256;8.198;2022-12-18T04:30:06;68.25;;;29.58;;
47161;SDS011;32921;53.256;8.198;2022-12-18T04:32:33;69.33;;;29.00;;
47161;SDS011;32921;53.256;8.198;2022-12-18T04:34:59;69.83;;;30.03;;
47161;SDS011;32921;53.256;8.198;2022-12-18T04:37:25;73.83;;;30.50;;
47161;SDS011;32921;53.256;8.198;2022-12-18T04:39:50;64.30;;;28.03;;
47161;SDS011;32921;53.256;8.198;2022-12-18T04:42:16;68.93;;;28.13;;
47161;SDS011;32921;53.256;8.198;2022-12-18T04:44:41;63.23;;;27.40;;
47161;SDS011;32921;53.256;8.198;2022-12-18T04:47:07;64.23;;;28.63;;
47161;SDS011;32921;53.256;8.198;2022-12-18T04:49:32;63.33;;;26.47;;
47161;SDS011;32921;53.256;8.198;2022-12-18T04:51:58;59.37;;;26.90;;
47161;SDS011;32921;53.256;8.198;2022-12-18T04:54:23;65.50;;;26.37;;
47161;SDS011;32921;53.256;8.198;2022-12-18T04:56:49;64.30;;;27.60;;
47161;SDS011;32921;53.256;8.198;2022-12-18T04:59:14;63.33;;;27.00;;
47161;SDS011;32921;53.256;8.198;2022-12-18T05:01:40;65.53;;;28.17;;
47161;SDS011;32921;53.256;8.198;2022-12-18T05:04:06;66.87;;;26.70;;
47161;SDS011;32921;53.256;8.198;2022-12-18T05:06:31;62.37;;;28.43;;
47161;SDS011;32921;53.256;8.198;2022-12-18T05:08:57;55.47;;;25.27;;
47161;SDS011;32921;53.256;8.198;2022-12-18T05:11:23;55.22;;;25.48;;
47161;SDS011;32921;53.256;8.198;2022-12-18T05:13:48;62.97;;;26.33;;
47161;SDS011;32921;53.256;8.198;2022-12-18T05:16:14;52.47;;;24.07;;
47161;SDS011;32921;53.256;8.198;2022-12-18T05:18:40;55.17;;;25.10;;
47161;SDS011;32921;53.256;8.198;2022-12-18T05:21:06;58.30;;;25.87;;
47161;SDS011;32921;53.256;8.198;2022-12-18T05:23:31;56.03;;;25.50;;
47161;SDS011;32921;53.256;8.198;2022-12-18T05:26:01;60.30;;;25.70;;
47161;SDS011;32921;53.256;8.198;2022-12-18T05:28:29;51.47;;;23.63;;
47161;SDS011;32921;53.256;8.198;2022-12-18T05:30:57;54.38;;;25.63;;
47161;SDS011;32921;53.256;8.198;2022-12-18T05:33:24;61.38;;;25.75;;
47161;SDS011;32921;53.256;8.198;2022-12-18T05:35:51;54.03;;;23.80;;
47161;SDS011;32921;53.256;8.198;2022-12-18T05:38:22;49.77;;;21.43;;
47161;SDS011;32921;53.256;8.198;2022-12-18T05:40:49;47.73;;;22.90;;
47161;SDS011;32921;53.256;8.198;2022-12-18T05:43:16;53.37;;;23.07;;
47161;SDS011;32921;53.256;8.198;2022-12-18T05:45:43;48.60;;;23.23;;
47161;SDS011;32921;53.256;8.198;2022-12-18T05:48:08;47.13;;;21.10;;
47161;SDS011;32921;53.256;8.198;2022-12-18T05:50:37;48.40;;;20.93;;
47161;SDS011;32921;53.256;8.198;2022-12-18T05:53:04;42.57;;;20.17;;
47161;SDS011;32921;53.256;8.198;2022-12-18T05:55:34;51.43;;;22.87;;
47161;SDS011;32921;53.256;8.198;2022-12-18T05:58:01;49.83;;;21.00;;
47161;SDS011;32921;53.256;8.198;2022-12-18T06:00:28;43.13;;;21.63;;
47161;SDS011;32921;53.256;8.198;2022-12-18T06:02:53;36.67;;;17.90;;
47161;SDS011;32921;53.256;8.198;2022-12-18T06:05:19;41.55;;;20.70;;
47161;SDS011;32921;53.256;8.198;2022-12-18T06:07:45;40.63;;;19.73;;
47161;SDS011;32921;53.256;8.198;2022-12-18T06:10:10;43.75;;;20.63;;
47161;SDS011;32921;53.256;8.198;2022-12-18T06:12:36;43.90;;;21.33;;
47161;SDS011;32921;53.256;8.198;2022-12-18T06:15:02;46.67;;;20.63;;
47161;SDS011;32921;53.256;8.198;2022-12-18T06:17:32;42.23;;;19.10;;
47161;SDS011;32921;53.256;8.198;2022-12-18T06:19:58;46.20;;;19.80;;
47161;SDS011;32921;53.256;8.198;2022-12-18T06:22:24;43.70;;;20.80;;
47161;SDS011;32921;53.256;8.198;2022-12-18T06:24:50;46.67;;;21.52;;
47161;SDS011;32921;53.256;8.198;2022-12-18T06:27:15;52.73;;;23.23;;
47161;SDS011;32921;53.256;8.198;2022-12-18T06:29:41;51.90;;;22.70;;
47161;SDS011;32921;53.256;8.198;2022-12-18T06:32:07;43.57;;;21.03;;
47161;SDS011;32921;53.256;8.198;2022-12-18T06:34:33;41.40;;;19.93;;
47161;SDS011;32921;53.256;8.198;2022-12-18T06:36:59;41.30;;;18.80;;
47161;SDS011;32921;53.256;8.198;2022-12-18T06:39:27;35.80;;;18.37;;
47161;SDS011;32921;53.256;8.198;2022-12-18T06:41:52;43.57;;;19.67;;
47161;SDS011;32921;53.256;8.198;2022-12-18T06:44:18;41.43;;;20.13;;
47161;SDS011;32921;53.256;8.198;2022-12-18T06:46:44;37.93;;;18.47;;
47161;SDS011;32921;53.256;8.198;2022-12-18T06:49:10;38.80;;;18.03;;
47161;SDS011;32921;53.256;8.198;2022-12-18T06:51:35;36.47;;;17.27;;
47161;SDS011;32921;53.256;8.198;2022-12-18T06:54:01;36.00;;;16.73;;
47161;SDS011;32921;53.256;8.198;2022-12-18T06:56:27;41.47;;;19.80;;
47161;SDS011;32921;53.256;8.198;2022-12-18T06:58:53;41.03;;;18.53;;
47161;SDS011;32921;53.256;8.198;2022-12-18T07:01:18;40.87;;;18.97;;
47161;SDS011;32921;53.256;8.198;2022-12-18T07:03:44;35.33;;;18.13;;
47161;SDS011;32921;53.256;8.198;2022-12-18T07:06:13;34.87;;;17.57;;
47161;SDS011;32921;53.256;8.198;2022-12-18T07:08:40;39.47;;;18.27;;
47161;SDS011;32921;53.256;8.198;2022-12-18T07:11:05;34.30;;;17.13;;
47161;SDS011;32921;53.256;8.198;2022-12-18T07:13:31;33.67;;;16.37;;
47161;SDS011;32921;53.256;8.198;2022-12-18T07:16:10;37.42;;;17.67;;
47161;SDS011;32921;53.256;8.198;2022-12-18T07:18:37;37.10;;;18.03;;
47161;SDS011;32921;53.256;8.198;2022-12-18T07:21:06;36.07;;;15.27;;
47161;SDS011;32921;53.256;8.198;2022-12-18T07:23:34;35.40;;;17.80;;
47161;SDS011;32921;53.256;8.198;2022-12-18T07:26:01;35.87;;;18.50;;
47161;SDS011;32921;53.256;8.198;2022-12-18T07:28:27;28.38;;;13.27;;
47161;SDS011;32921;53.256;8.198;2022-12-18T07:30:53;35.27;;;17.63;;
47161;SDS011;32921;53.256;8.198;2022-12-18T07:33:19;39.10;;;19.20;;
47161;SDS011;32921;53.256;8.198;2022-12-18T07:35:44;33.73;;;16.87;;
47161;SDS011;32921;53.256;8.198;2022-12-18T07:38:10;32.17;;;14.03;;
47161;SDS011;32921;53.256;8.198;2022-12-18T07:40:35;29.37;;;14.73;;
47161;SDS011;32921;53.256;8.198;2022-12-18T07:43:01;35.13;;;17.03;;
47161;SDS011;32921;53.256;8.198;2022-12-18T07:45:26;37.85;;;18.63;;
47161;SDS011;32921;53.256;8.198;2022-12-18T07:47:55;37.97;;;16.60;;
47161;SDS011;32921;53.256;8.198;2022-12-18T07:50:20;30.15;;;16.15;;
47161;SDS011;32921;53.256;8.198;2022-12-18T07:52:46;34.40;;;15.70;;
47161;SDS011;32921;53.256;8.198;2022-12-18T07:55:12;22.47;;;11.10;;
47161;SDS011;32921;53.256;8.198;2022-12-18T07:57:37;32.33;;;14.43;;
47161;SDS011;32921;53.256;8.198;2022-12-18T08:00:03;30.90;;;14.65;;
47161;SDS011;32921;53.256;8.198;2022-12-18T08:02:30;33.10;;;15.47;;
47161;SDS011;32921;53.256;8.198;2022-12-18T08:04:56;26.55;;;13.18;;
47161;SDS011;32921;53.256;8.198;2022-12-18T08:07:22;15.80;;;8.43;;
47161;SDS011;32921;53.256;8.198;2022-12-18T08:09:47;22.07;;;11.37;;
47161;SDS011;32921;53.256;8.198;2022-12-18T08:12:13;28.58;;;15.07;;
47161;SDS011;32921;53.256;8.198;2022-12-18T08:14:38;29.50;;;12.60;;
47161;SDS011;32921;53.256;8.198;2022-12-18T08:17:04;28.85;;;14.68;;
47161;SDS011;32921;53.256;8.198;2022-12-18T08:19:29;28.63;;;14.35;;
47161;SDS011;32921;53.256;8.198;2022-12-18T08:21:55;17.07;;;7.90;;
47161;SDS011;32921;53.256;8.198;2022-12-18T08:24:21;23.88;;;9.80;;
47161;SDS011;32921;53.256;8.198;2022-12-18T08:26:47;27.47;;;13.97;;
47161;SDS011;32921;53.256;8.198;2022-12-18T08:29:12;27.13;;;13.07;;
47161;SDS011;32921;53.256;8.198;2022-12-18T08:31:38;28.37;;;14.50;;
47161;SDS011;32921;53.256;8.198;2022-12-18T08:34:04;32.15;;;14.85;;
47161;SDS011;32921;53.256;8.198;2022-12-18T08:36:29;26.65;;;10.90;;
47161;SDS011;32921;53.256;8.198;2022-12-18T08:38:55;25.63;;;14.27;;
47161;SDS011;32921;53.256;8.198;2022-12-18T08:41:21;27.47;;;14.40;;
47161;SDS011;32921;53.256;8.198;2022-12-18T08:43:47;30.17;;;13.93;;
47161;SDS011;32921;53.256;8.198;2022-12-18T08:46:36;24.35;;;12.55;;
47161;SDS011;32921;53.256;8.198;2022-12-18T08:51:30;23.40;;;11.75;;
47161;SDS011;32921;53.256;8.198;2022-12-18T08:53:55;24.95;;;12.88;;
47161;SDS011;32921;53.256;8.198;2022-12-18T08:56:21;27.63;;;13.27;;
47161;SDS011;32921;53.256;8.198;2022-12-18T08:58:46;30.38;;;14.98;;
47161;SDS011;32921;53.256;8.198;2022-12-18T09:01:12;21.85;;;11.70;;
47161;SDS011;32921;53.256;8.198;2022-12-18T09:03:38;31.73;;;14.45;;
47161;SDS011;32921;53.256;8.198;2022-12-18T09:06:05;25.92;;;13.77;;
47161;SDS011;32921;53.256;8.198;2022-12-18T09:08:31;24.60;;;12.35;;
47161;SDS011;32921;53.256;8.198;2022-12-18T09:10:56;27.60;;;13.20;;
47161;SDS011;32921;53.256;8.198;2022-12-18T09:13:22;25.25;;;13.50;;
47161;SDS011;32921;53.256;8.198;2022-12-18T09:15:49;27.33;;;13.48;;
47161;SDS011;32921;53.256;8.198;2022-12-18T09:18:17;21.02;;;9.27;;
47161;SDS011;32921;53.256;8.198;2022-12-18T09:20:44;20.35;;;10.13;;
47161;SDS011;32921;53.256;8.198;2022-12-18T09:23:10;25.33;;;12.80;;
47161;SDS011;32921;53.256;8.198;2022-12-18T09:25:36;29.83;;;13.48;;
47161;SDS011;32921;53.256;8.198;2022-12-18T09:28:03;30.10;;;14.57;;
47161;SDS011;32921;53.256;8.198;2022-12-18T09:30:40;25.52;;;14.25;;
47161;SDS011;32921;53.256;8.198;2022-12-18T09:33:07;25.83;;;12.77;;
47161;SDS011;32921;53.256;8.198;2022-12-18T09:35:35;22.17;;;11.20;;
47161;SDS011;32921;53.256;8.198;2022-12-18T09:38:01;35.22;;;16.33;;
47161;SDS011;32921;53.256;8.198;2022-12-18T09:40:28;21.63;;;10.43;;
47161;SDS011;32921;53.256;8.198;2022-12-18T09:43:00;27.80;;;15.23;;
47161;SDS011;32921;53.256;8.198;2022-12-18T09:45:34;23.15;;;12.82;;
47161;SDS011;32921;53.256;8.198;2022-12-18T09:48:10;20.40;;;9.95;;
47161;SDS011;32921;53.256;8.198;2022-12-18T09:51:00;23.90;;;12.80;;
47161;SDS011;32921;53.256;8.198;2022-12-18T09:53:33;18.30;;;8.20;;
47161;SDS011;32921;53.256;8.198;2022-12-18T09:56:03;24.83;;;12.23;;
47161;SDS011;32921;53.256;8.198;2022-12-18T09:58:39;21.58;;;11.48;;
47161;SDS011;32921;53.256;8.198;2022-12-18T10:01:12;22.92;;;10.32;;
47161;SDS011;32921;53.256;8.198;2022-12-18T10:03:41;26.50;;;13.38;;
47161;SDS011;32921;53.256;8.198;2022-12-18T10:06:14;29.08;;;13.80;;
47161;SDS011;32921;53.256;8.198;2022-12-18T10:14:15;15.00;;;6.10;;
47161;SDS011;32921;53.256;8.198;2022-12-18T10:16:58;23.93;;;12.17;;
47161;SDS011;32921;53.256;8.198;2022-12-18T10:19:37;21.13;;;10.23;;
47161;SDS011;32921;53.256;8.198;2022-12-18T10:24:59;20.60;;;8.93;;
47161;SDS011;32921;53.256;8.198;2022-12-18T10:27:30;20.88;;;11.05;;
47161;SDS011;32921;53.256;8.198;2022-12-18T10:29:56;23.00;;;11.90;;
47161;SDS011;32921;53.256;8.198;2022-12-18T10:32:27;22.35;;;10.60;;
47161;SDS011;32921;53.256;8.198;2022-12-18T10:34:55;16.23;;;7.35;;
47161;SDS011;32921;53.256;8.198;2022-12-18T10:37:24;17.85;;;8.00;;
47161;SDS011;32921;53.256;8.198;2022-12-18T10:42:37;23.67;;;12.25;;
47161;SDS011;32921;53.256;8.198;2022-12-18T10:45:05;27.77;;;12.48;;
47161;SDS011;32921;53.256;8.198;2022-12-18T10:47:41;47.03;;;16.17;;
47161;SDS011;32921;53.256;8.198;2022-12-18T10:53:04;31.23;;;14.90;;
47161;SDS011;32921;53.256;8.198;2022-12-18T10:55:39;28.35;;;13.98;;
47161;SDS011;32921;53.256;8.198;2022-12-18T10:58:16;25.27;;;14.00;;
47161;SDS011;32921;53.256;8.198;2022-12-18T11:01:06;26.50;;;13.65;;
47161;SDS011;32921;53.256;8.198;2022-12-18T11:08:38;26.15;;;14.65;;
47161;SDS011;32921;53.256;8.198;2022-12-18T11:11:04;25.95;;;13.68;;
47161;SDS011;32921;53.256;8.198;2022-12-18T11:13:41;25.10;;;14.52;;
47161;SDS011;32921;53.256;8.198;2022-12-18T11:16:18;26.23;;;13.23;;
47161;SDS011;32921;53.256;8.198;2022-12-18T11:18:44;28.38;;;12.68;;
47161;SDS011;32921;53.256;8.198;2022-12-18T11:21:11;23.05;;;12.05;;
47161;SDS011;32921;53.256;8.198;2022-12-18T11:23:44;26.42;;;13.45;;
47161;SDS011;32921;53.256;8.198;2022-12-18T11:26:14;26.50;;;12.43;;
47161;SDS011;32921;53.256;8.198;2022-12-18T11:28:49;23.33;;;11.40;;
47161;SDS011;32921;53.256;8.198;2022-12-18T11:34:01;23.20;;;12.75;;
47161;SDS011;32921;53.256;8.198;2022-12-18T11:36:37;20.55;;;9.40;;
47161;SDS011;32921;53.256;8.198;2022-12-18T11:42:12;23.55;;;11.15;;
47161;SDS011;32921;53.256;8.198;2022-12-18T11:47:49;24.58;;;11.25;;
47161;SDS011;32921;53.256;8.198;2022-12-18T11:50:45;16.13;;;7.88;;
47161;SDS011;32921;53.256;8.198;2022-12-18T11:53:15;20.52;;;10.73;;
47161;SDS011;32921;53.256;8.198;2022-12-18T11:55:49;28.27;;;14.98;;
47161;SDS011;32921;53.256;8.198;2022-12-18T12:01:28;18.33;;;8.15;;
47161;SDS011;32921;53.256;8.198;2022-12-18T12:04:36;25.15;;;13.57;;
47161;SDS011;32921;53.256;8.198;2022-12-18T12:07:17;25.65;;;13.45;;
47161;SDS011;32921;53.256;8.198;2022-12-18T12:15:40;29.50;;;14.82;;
47161;SDS011;32921;53.256;8.198;2022-12-18T12:21:12;28.13;;;13.43;;
47161;SDS011;32921;53.256;8.198;2022-12-18T12:24:01;11.45;;;5.78;;
47161;SDS011;32921;53.256;8.198;2022-12-18T12:27:20;15.60;;;7.57;;
47161;SDS011;32921;53.256;8.198;2022-12-18T12:29:49;18.67;;;7.47;;
47161;SDS011;32921;53.256;8.198;2022-12-18T12:32:22;15.07;;;7.32;;
47161;SDS011;32921;53.256;8.198;2022-12-18T12:38:08;32.10;;;17.08;;
47161;SDS011;32921;53.256;8.198;2022-12-18T12:40:39;25.35;;;13.48;;
47161;SDS011;32921;53.256;8.198;2022-12-18T12:43:19;26.90;;;14.45;;
47161;SDS011;32921;53.256;8.198;2022-12-18T12:46:05;19.88;;;9.95;;
47161;SDS011;32921;53.256;8.198;2022-12-18T12:48:43;23.85;;;13.82;;
47161;SDS011;32921;53.256;8.198;2022-12-18T12:51:15;25.85;;;13.88;;
47161;SDS011;32921;53.256;8.198;2022-12-18T12:53:49;25.23;;;14.25;;
47161;SDS011;32921;53.256;8.198;2022-12-18T12:56:18;28.50;;;15.32;;
47161;SDS011;32921;53.256;8.198;2022-12-18T13:04:39;24.58;;;13.98;;
47161;SDS011;32921;53.256;8.198;2022-12-18T13:07:17;24.95;;;15.05;;
47161;SDS011;32921;53.256;8.198;2022-12-18T13:12:36;23.05;;;12.02;;
47161;SDS011;32921;53.256;8.198;2022-12-18T13:15:38;22.77;;;13.65;;
47161;SDS011;32921;53.256;8.198;2022-12-18T13:18:12;24.63;;;11.98;;
47161;SDS011;32921;53.256;8.198;2022-12-18T13:20:50;20.48;;;9.07;;
47161;SDS011;32921;53.256;8.198;2022-12-18T13:25:52;28.35;;;14.70;;
47161;SDS011;32921;53.256;8.198;2022-12-18T13:30:59;27.25;;;15.65;;
47161;SDS011;32921;53.256;8.198;2022-12-18T13:38:47;25.92;;;13.07;;
47161;SDS011;32921;53.256;8.198;2022-12-18T13:41:39;19.67;;;10.40;;
47161;SDS011;32921;53.256;8.198;2022-12-18T13:44:13;21.60;;;10.05;;
47161;SDS011;32921;53.256;8.198;2022-12-18T13:46:59;24.95;;;14.13;;
47161;SDS011;32921;53.256;8.198;2022-12-18T13:54:54;24.02;;;14.15;;
47161;SDS011;32921;53.256;8.198;2022-12-18T13:57:29;25.83;;;13.70;;
47161;SDS011;32921;53.256;8.198;2022-12-18T13:59:57;16.17;;;6.60;;
47161;SDS011;32921;53.256;8.198;2022-12-18T14:02:25;29.80;;;14.57;;
47161;SDS011;32921;53.256;8.198;2022-12-18T14:04:52;21.55;;;11.02;;
47161;SDS011;32921;53.256;8.198;2022-12-18T14:07:19;26.00;;;13.25;;
47161;SDS011;32921;53.256;8.198;2022-12-18T14:09:54;21.88;;;12.02;;
47161;SDS011;32921;53.256;8.198;2022-12-18T14:12:25;27.08;;;15.05;;
47161;SDS011;32921;53.256;8.198;2022-12-18T14:20:22;20.00;;;10.25;;
47161;SDS011;32921;53.256;8.198;2022-12-18T14:22:49;20.65;;;8.80;;
47161;SDS011;32921;53.256;8.198;2022-12-18T14:25:22;18.83;;;9.90;;
47161;SDS011;32921;53.256;8.198;2022-12-18T14:27:51;24.33;;;13.95;;
47161;SDS011;32921;53.256;8.198;2022-12-18T14:30:26;17.58;;;8.23;;
47161;SDS011;32921;53.256;8.198;2022-12-18T14:32:59;15.50;;;7.80;;
47161;SDS011;32921;53.256;8.198;2022-12-18T14:35:26;20.58;;;10.38;;
47161;SDS011;32921;53.256;8.198;2022-12-18T14:37:52;19.92;;;11.60;;
47161;SDS011;32921;53.256;8.198;2022-12-18T14:40:17;23.42;;;13.02;;
47161;SDS011;32921;53.256;8.198;2022-12-18T14:42:43;22.40;;;12.40;;
47161;SDS011;32921;53.256;8.198;2022-12-18T14:45:32;25.85;;;14.18;;
47161;SDS011;32921;53.256;8.198;2022-12-18T14:47:58;25.95;;;13.30;;
47161;SDS011;32921;53.256;8.198;2022-12-18T14:50:24;24.40;;;14.15;;
47161;SDS011;32921;53.256;8.198;2022-12-18T14:52:51;29.27;;;15.82;;
47161;SDS011;32921;53.256;8.198;2022-12-18T14:55:18;35.88;;;23.25;;
47161;SDS011;32921;53.256;8.198;2022-12-18T14:57:45;27.83;;;14.43;;
47161;SDS011;32921;53.256;8.198;2022-12-18T15:00:17;23.98;;;13.05;;
47161;SDS011;32921;53.256;8.198;2022-12-18T15:02:48;27.58;;;15.60;;
47161;SDS011;32921;53.256;8.198;2022-12-18T15:05:23;30.77;;;16.15;;
47161;SDS011;32921;53.256;8.198;2022-12-18T15:07:55;9.73;;;5.20;;
47161;SDS011;32921;53.256;8.198;2022-12-18T15:10:24;21.02;;;9.90;;
47161;SDS011;32921;53.256;8.198;2022-12-18T15:25:45;19.33;;;10.10;;
47161;SDS011;32921;53.256;8.198;2022-12-18T15:33:39;25.48;;;13.45;;
47161;SDS011;32921;53.256;8.198;2022-12-18T15:36:12;23.02;;;9.80;;
47161;SDS011;32921;53.256;8.198;2022-12-18T15:38:39;23.23;;;13.88;;
47161;SDS011;32921;53.256;8.198;2022-12-18T15:41:05;20.50;;;11.27;;
47161;SDS011;32921;53.256;8.198;2022-12-18T15:43:30;22.38;;;11.60;;
47161;SDS011;32921;53.256;8.198;2022-12-18T15:46:00;16.70;;;7.38;;
47161;SDS011;32921;53.256;8.198;2022-12-18T15:48:26;23.73;;;13.60;;
47161;SDS011;32921;53.256;8.198;2022-12-18T15:50:53;26.67;;;13.07;;
47161;SDS011;32921;53.256;8.198;2022-12-18T15:53:21;17.80;;;9.30;;
47161;SDS011;32921;53.256;8.198;2022-12-18T15:55:48;22.45;;;12.32;;
47161;SDS011;32921;53.256;8.198;2022-12-18T15:58:32;22.40;;;12.15;;
47161;SDS011;32921;53.256;8.198;2022-12-18T16:00:58;18.60;;;8.38;;
47161;SDS011;32921;53.256;8.198;2022-12-18T16:03:25;17.98;;;9.95;;
47161;SDS011;32921;53.256;8.198;2022-12-18T16:05:50;20.83;;;12.90;;
47161;SDS011;32921;53.256;8.198;2022-12-18T16:08:16;22.42;;;12.88;;
47161;SDS011;32921;53.256;8.198;2022-12-18T16:10:41;24.13;;;12.63;;
47161;SDS011;32921;53.256;8.198;2022-12-18T16:13:10;21.35;;;11.95;;
47161;SDS011;32921;53.256;8.198;2022-12-18T16:18:04;19.00;;;8.57;;
47161;SDS011;32921;53.256;8.198;2022-12-18T16:20:30;22.92;;;11.13;;
47161;SDS011;32921;53.256;8.198;2022-12-18T16:22:56;20.98;;;8.98;;
47161;SDS011;32921;53.256;8.198;2022-12-18T16:25:27;35.05;;;15.18;;
47161;SDS011;32921;53.256;8.198;2022-12-18T16:27:54;18.80;;;9.77;;
47161;SDS011;32921;53.256;8.198;2022-12-18T16:30:21;15.75;;;6.75;;